Terminal Aerodrome Forecast
Issued by NWS Corpus Christi, TX

Home | Current Version | Previous Version | Text Only | Print | Product List | Glossary On
Versions: 1 2 3 4 5 6 7 8 9 10 11 12
000
FTUS44 KCRP 262334
TAFVCT
TAF
KVCT 262334Z 2700/2724 18003KT P6SM FEW030 BKN200
     FM271000 VRB04KT P6SM VCSH SCT020 BKN250
     FM271300 19005KT P6SM VCTS SCT020CB BKN250
     FM272100 16015KT P6SM SCT040 BKN250=

USA.gov is the U.S. government's official web portal to all federal, state and local government web resources and services.